Time;durP1;ratioP1;P1;durP2;ratioP2;P2;SDS_P1;SDS_P2;PMS_P1;PMS_P2;Temp;Humidity;BMP_temperature;BMP_pressure;BME280_temperature;BME280_humidity;BME280_pressure;Samples;Min_cycle;Max_cycle;Signal;HPM_P1;HPM_P2
2023/11/09 00:00:41;;;;;;;1.45;1.15;;;10.80;99.90;;;;;;5032805;28;20509;-39
2023/11/09 00:03:07;;;;;;;1.10;1.10;;;10.80;99.90;;;;;;5032764;28;20508;-41
2023/11/09 00:05:33;;;;;;;0.80;0.80;;;10.80;99.90;;;;;;5032771;28;20030;-38
2023/11/09 00:07:59;;;;;;;1.05;1.05;;;10.80;99.90;;;;;;5032658;28;20484;-42
2023/11/09 00:10:26;;;;;;;1.40;0.98;;;10.80;99.90;;;;;;5052308;28;20029;-41
2023/11/09 00:12:53;;;;;;;1.17;1.08;;;10.80;99.90;;;;;;5033072;28;20038;-40
2023/11/09 00:15:22;;;;;;;3.07;1.20;;;10.80;99.90;;;;;;5031168;28;20108;-39
2023/11/09 00:17:48;;;;;;;1.23;1.10;;;10.80;99.90;;;;;;5032528;28;20036;-39
2023/11/09 00:20:17;;;;;;;1.23;1.13;;;10.90;99.90;;;;;;5032833;28;20026;-42
2023/11/09 00:22:46;;;;;;;3.50;1.63;;;10.80;99.90;;;;;;5032791;28;20401;-40
2023/11/09 00:25:12;;;;;;;2.55;1.27;;;10.80;99.90;;;;;;5032831;28;20061;-41
2023/11/09 00:27:38;;;;;;;6.35;1.75;;;10.80;99.90;;;;;;5031382;28;20056;-38
2023/11/09 00:30:06;;;;;;;1.70;1.60;;;10.80;99.90;;;;;;5032519;28;20033;-39
2023/11/09 00:32:32;;;;;;;7.07;1.80;;;10.80;99.90;;;;;;5032324;28;20029;-37
2023/11/09 00:34:58;;;;;;;1.88;1.60;;;10.90;99.90;;;;;;5032249;28;20555;-54
2023/11/09 00:37:25;;;;;;;1.98;1.83;;;10.80;99.90;;;;;;5032533;28;20018;-54
2023/11/09 00:39:51;;;;;;;5.68;2.15;;;10.80;99.90;;;;;;5032291;28;20492;-50
2023/11/09 00:42:17;;;;;;;1.40;1.30;;;10.90;99.90;;;;;;5031444;28;20022;-38
2023/11/09 00:44:43;;;;;;;2.00;1.65;;;10.80;99.90;;;;;;5032258;28;20045;-40
2023/11/09 00:47:08;;;;;;;2.60;1.60;;;10.90;99.90;;;;;;5037347;28;20550;-41
2023/11/09 00:49:34;;;;;;;2.33;1.65;;;10.90;99.90;;;;;;5036346;28;20139;-38
2023/11/09 00:52:00;;;;;;;1.63;1.50;;;10.90;99.90;;;;;;5032568;28;20030;-39
2023/11/09 00:54:26;;;;;;;1.70;1.60;;;10.90;99.90;;;;;;5032394;28;20029;-39
2023/11/09 00:56:53;;;;;;;8.40;1.90;;;10.80;99.90;;;;;;5032283;28;20080;-37
2023/11/09 00:59:19;;;;;;;1.55;1.45;;;10.90;99.90;;;;;;5030857;28;20025;-37
2023/11/09 01:01:45;;;;;;;2.40;1.70;;;10.80;99.90;;;;;;5032399;28;20024;-39
2023/11/09 01:04:10;;;;;;;2.05;1.85;;;10.90;99.90;;;;;;5032531;28;20017;-37
2023/11/09 01:06:36;;;;;;;3.65;1.48;;;10.90;99.90;;;;;;5032218;28;20026;-43
2023/11/09 01:09:02;;;;;;;1.52;1.25;;;10.90;99.90;;;;;;5032475;28;20076;-39
2023/11/09 01:11:27;;;;;;;2.00;1.90;;;10.90;99.90;;;;;;5034989;28;20021;-41
2023/11/09 01:13:53;;;;;;;1.70;1.60;;;10.90;99.90;;;;;;5035711;28;20033;-39
2023/11/09 01:16:20;;;;;;;2.08;1.88;;;11.00;99.90;;;;;;5035399;28;20025;-38
2023/11/09 01:18:47;;;;;;;4.50;1.92;;;10.90;99.90;;;;;;5035914;28;20075;-41
2023/11/09 01:21:14;;;;;;;1.63;1.52;;;10.90;99.90;;;;;;5035866;28;20021;-40
2023/11/09 01:23:40;;;;;;;1.70;1.60;;;10.90;99.90;;;;;;5035544;28;20100;-37
2023/11/09 01:26:06;;;;;;;1.55;1.45;;;10.90;99.90;;;;;;5037745;28;20037;-37
2023/11/09 01:28:32;;;;;;;2.10;1.90;;;10.90;99.90;;;;;;5035264;28;20512;-37
2023/11/09 01:30:58;;;;;;;2.10;1.70;;;10.90;99.90;;;;;;5035388;28;20026;-37
2023/11/09 01:33:24;;;;;;;1.90;1.80;;;10.90;99.90;;;;;;5035114;28;20470;-36
2023/11/09 01:35:49;;;;;;;4.57;1.63;;;10.90;99.90;;;;;;5034264;28;20034;-35
2023/11/09 01:38:15;;;;;;;3.80;1.85;;;10.90;99.90;;;;;;5033849;28;20113;-35
2023/11/09 01:40:41;;;;;;;3.00;2.05;;;10.90;99.90;;;;;;5035112;28;20044;-35
2023/11/09 01:43:15;;;;;;;3.28;1.70;;;10.90;99.90;;;;;;5035114;28;20018;-33
2023/11/09 01:45:43;;;;;;;2.50;1.73;;;10.90;99.90;;;;;;5035146;28;20040;-35
2023/11/09 01:48:09;;;;;;;2.20;1.92;;;11.00;99.90;;;;;;5033792;28;20029;-35
2023/11/09 01:50:36;;;;;;;2.63;1.83;;;10.90;99.90;;;;;;5034848;28;20494;-36
2023/11/09 01:53:07;;;;;;;4.03;2.00;;;10.90;99.90;;;;;;5033602;28;20111;-36
2023/11/09 01:55:34;;;;;;;2.65;1.55;;;10.90;99.90;;;;;;5034852;28;20299;-36
2023/11/09 01:58:02;;;;;;;1.73;1.45;;;10.90;99.90;;;;;;5034866;28;20030;-40
2023/11/09 02:00:28;;;;;;;3.47;1.67;;;10.90;99.90;;;;;;5034767;28;20054;-38
2023/11/09 02:02:56;;;;;;;2.22;1.65;;;10.90;99.90;;;;;;5034690;28;20046;-36
2023/11/09 02:05:23;;;;;;;2.80;1.60;;;11.00;99.90;;;;;;5034142;28;20108;-37
2023/11/09 02:07:50;;;;;;;3.30;2.00;;;11.00;99.90;;;;;;5033038;28;20099;-37
2023/11/09 02:10:16;;;;;;;2.83;2.50;;;11.00;99.90;;;;;;5035239;28;20496;-36
2023/11/09 02:12:42;;;;;;;1.75;1.60;;;11.00;99.90;;;;;;5034520;28;20100;-36
2023/11/09 02:15:09;;;;;;;3.10;1.83;;;11.00;99.90;;;;;;5034455;28;20067;-36
2023/11/09 02:17:35;;;;;;;1.40;1.30;;;11.00;99.90;;;;;;5034810;28;20083;-37
2023/11/09 02:20:00;;;;;;;2.42;1.45;;;11.00;99.90;;;;;;5034436;28;20470;-36
2023/11/09 02:22:27;;;;;;;6.53;3.90;;;11.00;99.90;;;;;;5033986;28;20021;-36
2023/11/09 02:24:54;;;;;;;3.10;1.80;;;11.00;99.90;;;;;;5034503;28;20025;-35
2023/11/09 02:27:20;;;;;;;1.70;1.50;;;11.10;99.90;;;;;;5034364;28;20100;-35
2023/11/09 02:29:46;;;;;;;2.30;1.60;;;11.10;99.90;;;;;;5034074;28;20028;-38
2023/11/09 02:32:11;;;;;;;1.77;1.48;;;11.10;99.90;;;;;;5034233;28;20021;-39
2023/11/09 02:34:39;;;;;;;2.08;1.77;;;11.10;99.90;;;;;;5033150;28;20112;-37
2023/11/09 02:37:06;;;;;;;2.35;2.00;;;11.10;99.90;;;;;;5034117;28;20030;-36
2023/11/09 02:39:32;;;;;;;2.25;2.05;;;11.20;99.90;;;;;;5034215;28;20035;-38
2023/11/09 02:41:58;;;;;;;6.03;2.20;;;11.20;99.90;;;;;;5034166;28;20013;-37
2023/11/09 02:44:24;;;;;;;2.78;2.33;;;11.10;99.90;;;;;;5034033;28;20045;-39
2023/11/09 02:46:49;;;;;;;2.47;2.28;;;11.10;99.90;;;;;;5032782;28;20022;-39
2023/11/09 02:49:15;;;;;;;2.28;1.80;;;11.10;99.90;;;;;;5034162;28;20030;-39
2023/11/09 02:51:41;;;;;;;3.38;2.28;;;11.10;99.90;;;;;;5033773;28;20093;-38
2023/11/09 02:54:06;;;;;;;3.95;2.63;;;11.10;99.90;;;;;;5033743;28;20064;-39
2023/11/09 02:56:36;;;;;;;3.10;2.80;;;11.20;99.90;;;;;;5032944;28;20030;-39
2023/11/09 02:59:03;;;;;;;3.33;2.55;;;11.20;99.90;;;;;;5032839;28;20025;-38
2023/11/09 03:01:28;;;;;;;3.45;3.15;;;11.20;99.90;;;;;;5032283;28;20021;-38
2023/11/09 03:03:55;;;;;;;3.35;2.70;;;11.20;99.90;;;;;;5032259;28;20104;-38
2023/11/09 03:06:21;;;;;;;4.45;2.83;;;11.20;99.90;;;;;;5033799;28;20474;-38
2023/11/09 03:08:47;;;;;;;2.97;2.78;;;11.20;99.90;;;;;;5033810;28;20025;-38
2023/11/09 03:11:20;;;;;;;2.70;2.50;;;11.20;99.90;;;;;;5033435;28;20112;-38
2023/11/09 03:13:46;;;;;;;3.15;2.70;;;11.20;99.90;;;;;;5033672;28;20056;-38
2023/11/09 03:16:13;;;;;;;3.33;2.88;;;11.20;99.90;;;;;;5033456;28;20469;-38
2023/11/09 03:18:41;;;;;;;3.85;3.28;;;11.20;99.90;;;;;;5033535;28;20021;-38
2023/11/09 03:21:08;;;;;;;;;;;11.20;99.90;;;;;;5033764;28;20604;-38
2023/11/09 03:23:35;;;;;;;2.83;2.63;;;11.20;99.90;;;;;;5033330;28;19905;-39
2023/11/09 03:26:00;;;;;;;3.25;2.65;;;11.20;99.90;;;;;;5033301;28;20033;-38
2023/11/09 03:28:26;;;;;;;2.53;2.33;;;11.30;99.90;;;;;;5033235;28;20025;-40
2023/11/09 03:30:52;;;;;;;2.78;2.35;;;11.20;99.90;;;;;;5032035;28;20445;-40
2023/11/09 03:33:18;;;;;;;7.10;2.58;;;11.20;99.90;;;;;;5032520;28;20017;-37
2023/11/09 03:35:44;;;;;;;2.47;2.28;;;11.30;99.90;;;;;;5032794;28;20037;-36
2023/11/09 03:38:10;;;;;;;1.92;1.80;;;11.20;99.90;;;;;;5033097;28;20091;-39
2023/11/09 03:40:35;;;;;;;1.92;1.83;;;11.20;99.90;;;;;;5031732;28;20478;-39
2023/11/09 03:43:01;;;;;;;1.45;1.35;;;11.20;99.90;;;;;;5033235;28;20075;-38
2023/11/09 03:45:27;;;;;;;3.08;1.55;;;11.20;99.90;;;;;;5031595;28;20091;-37
2023/11/09 03:47:53;;;;;;;1.45;1.35;;;11.10;99.90;;;;;;5032970;28;20026;-38
2023/11/09 03:50:19;;;;;;;1.48;1.38;;;11.10;99.90;;;;;;5032762;28;20022;-38
2023/11/09 03:52:45;;;;;;;3.33;1.60;;;11.10;99.90;;;;;;5032851;28;20022;-54
2023/11/09 03:55:12;;;;;;;1.30;1.20;;;11.00;99.90;;;;;;5032830;28;20032;-40
2023/11/09 03:57:38;;;;;;;2.13;1.50;;;11.00;99.90;;;;;;5032823;28;20024;-43
2023/11/09 04:00:11;;;;;;;1.45;1.00;;;11.00;99.90;;;;;;5032827;28;20100;-39
2023/11/09 04:02:38;;;;;;;1.45;1.35;;;10.90;99.90;;;;;;5032812;28;20022;-39
2023/11/09 04:05:04;;;;;;;1.53;1.43;;;10.90;99.90;;;;;;5032855;28;20052;-39
2023/11/09 04:07:30;;;;;;;1.25;1.15;;;10.90;99.90;;;;;;5032546;28;20030;-38
2023/11/09 04:09:56;;;;;;;2.55;1.10;;;10.90;99.90;;;;;;5029802;28;20022;-38
2023/11/09 04:12:22;;;;;;;2.42;1.00;;;11.00;99.90;;;;;;5026840;28;20037;-38
2023/11/09 04:14:48;;;;;;;1.90;1.20;;;11.00;99.90;;;;;;5031935;28;20083;-39
2023/11/09 04:17:13;;;;;;;2.65;0.95;;;11.00;99.90;;;;;;5032887;28;20045;-39
2023/11/09 04:19:40;;;;;;;3.50;0.65;;;11.00;99.90;;;;;;5032004;28;20021;-38
2023/11/09 04:22:06;;;;;;;1.83;1.20;;;11.00;99.90;;;;;;5032544;28;20537;-39
2023/11/09 04:24:32;;;;;;;1.48;1.20;;;11.00;99.90;;;;;;5032623;28;20049;-38
2023/11/09 04:26:57;;;;;;;0.95;0.88;;;11.00;99.90;;;;;;5031997;28;20021;-52
2023/11/09 04:29:24;;;;;;;5.18;1.00;;;11.00;99.90;;;;;;5032799;28;20017;-54
2023/11/09 04:31:49;;;;;;;1.30;0.93;;;11.00;99.90;;;;;;5032526;28;20474;-58
2023/11/09 04:34:15;;;;;;;3.78;1.00;;;10.90;99.90;;;;;;5032250;28;20041;-53
2023/11/09 04:36:44;;;;;;;2.25;2.05;;;10.90;99.90;;;;;;5032253;28;20116;-53
2023/11/09 04:39:11;;;;;;;1.42;1.30;;;10.90;99.90;;;;;;5032673;28;20022;-53
2023/11/09 04:41:37;;;;;;;3.42;1.73;;;10.90;99.90;;;;;;5032192;28;20026;-53
2023/11/09 04:44:03;;;;;;;5.22;1.42;;;10.90;99.90;;;;;;5032846;28;20045;-53
2023/11/09 04:46:29;;;;;;;1.45;1.27;;;10.90;99.90;;;;;;5016394;28;20378;-52
2023/11/09 04:49:05;;;;;;;2.30;1.88;;;10.90;99.90;;;;;;5018467;28;20136;-56
2023/11/09 04:51:31;;;;;;;2.03;1.75;;;10.80;99.90;;;;;;5036412;28;20086;-53
2023/11/09 04:54:06;;;;;;;2.47;1.55;;;10.80;99.90;;;;;;5035969;28;20549;-52
2023/11/09 04:56:38;;;;;;;2.72;1.73;;;10.70;99.90;;;;;;5016269;28;20422;-54
2023/11/09 05:07:20;;;;;;;3.95;2.45;;;10.50;99.90;;;;;;5035778;28;20037;-54
2023/11/09 05:09:47;;;;;;;5.47;2.20;;;10.60;99.90;;;;;;5035853;28;20105;-55
2023/11/09 05:12:15;;;;;;;3.92;1.80;;;10.60;99.90;;;;;;5035673;28;20021;-54
2023/11/09 05:14:41;;;;;;;5.68;2.17;;;10.60;99.90;;;;;;5035442;28;20109;-53
2023/11/09 05:17:08;;;;;;;3.85;1.55;;;10.60;99.90;;;;;;5035699;28;20525;-54
2023/11/09 05:19:35;;;;;;;8.32;2.33;;;10.70;99.90;;;;;;5034026;28;20048;-55
2023/11/09 05:22:02;;;;;;;2.47;2.13;;;10.70;99.90;;;;;;5035491;28;20033;-54
2023/11/09 05:24:28;;;;;;;9.98;2.65;;;10.60;99.90;;;;;;5034373;28;20017;-54
2023/11/09 05:26:53;;;;;;;13.57;2.30;;;10.70;99.90;;;;;;5035465;28;20490;-53
2023/11/09 05:29:20;;;;;;;12.27;2.90;;;10.70;99.90;;;;;;5035268;28;20067;-53
2023/11/09 05:31:46;;;;;;;6.75;2.30;;;10.70;99.90;;;;;;5035096;28;20025;-53
2023/11/09 05:34:11;;;;;;;6.03;2.40;;;10.70;99.90;;;;;;5033843;28;20025;-56
2023/11/09 05:36:38;;;;;;;9.23;2.65;;;10.70;99.90;;;;;;5035013;28;20406;-54
2023/11/09 05:39:04;;;;;;;4.40;1.95;;;10.60;99.90;;;;;;5035070;28;20025;-53
2023/11/09 05:41:31;;;;;;;5.53;2.15;;;10.60;99.90;;;;;;5035404;28;20026;-55
2023/11/09 05:43:58;;;;;;;8.47;2.30;;;10.60;99.90;;;;;;5035194;28;20101;-54
2023/11/09 05:46:24;;;;;;;6.43;2.22;;;10.60;99.90;;;;;;5035109;28;20032;-52
2023/11/09 05:48:50;;;;;;;5.15;1.73;;;10.60;99.90;;;;;;5033789;28;20108;-52
2023/11/09 05:51:23;;;;;;;10.52;2.05;;;10.50;99.90;;;;;;5035190;28;20478;-54
2023/11/09 05:53:53;;;;;;;19.55;2.63;;;10.50;99.90;;;;;;5034808;28;20104;-54
2023/11/09 05:56:23;;;;;;;4.43;2.35;;;10.50;99.90;;;;;;5034054;28;20540;-50
2023/11/09 05:58:48;;;;;;;10.00;1.90;;;10.50;99.90;;;;;;5034650;28;20032;-54
2023/11/09 06:01:14;;;;;;;5.63;1.90;;;10.40;99.90;;;;;;5033850;28;20394;-41
2023/11/09 06:03:40;;;;;;;5.38;1.77;;;10.40;99.90;;;;;;5035065;28;20098;-38
2023/11/09 06:06:06;;;;;;;8.85;1.60;;;10.40;99.90;;;;;;5034351;28;20026;-54
2023/11/09 06:08:34;;;;;;;2.90;1.80;;;10.40;99.90;;;;;;5034587;28;20493;-57
2023/11/09 06:11:00;;;;;;;3.78;1.40;;;10.40;99.90;;;;;;5034553;28;20028;-54
2023/11/09 06:13:26;;;;;;;3.88;1.50;;;10.40;99.90;;;;;;5034311;28;20033;-56
2023/11/09 06:15:52;;;;;;;2.13;1.58;;;10.30;99.90;;;;;;5034438;28;20025;-51
2023/11/09 06:18:18;;;;;;;5.10;2.35;;;10.30;99.90;;;;;;5034262;28;20036;-55
2023/11/09 06:20:44;;;;;;;6.30;1.85;;;10.30;99.90;;;;;;5034172;28;20034;-55
2023/11/09 06:23:09;;;;;;;6.60;1.75;;;10.30;99.90;;;;;;5033174;28;20017;-53
2023/11/09 06:25:35;;;;;;;11.70;2.25;;;10.30;99.90;;;;;;5033049;28;20119;-38
2023/11/09 06:28:02;;;;;;;5.95;2.50;;;10.30;99.90;;;;;;5034083;28;20462;-41
2023/11/09 06:30:29;;;;;;;5.00;2.10;;;10.30;99.90;;;;;;5033761;28;20061;-38
2023/11/09 06:32:55;;;;;;;6.38;2.80;;;10.20;99.90;;;;;;5034176;28;20478;-39
2023/11/09 06:35:21;;;;;;;11.13;3.15;;;10.20;99.90;;;;;;5033553;28;20124;-40
2023/11/09 06:37:47;;;;;;;5.63;2.80;;;10.20;99.90;;;;;;5033261;28;20057;-39
2023/11/09 06:40:16;;;;;;;9.90;3.70;;;10.20;99.90;;;;;;5034117;28;20021;-39
2023/11/09 06:42:47;;;;;;;13.48;3.47;;;10.20;99.90;;;;;;5034000;28;20095;-37
2023/11/09 06:45:12;;;;;;;12.38;3.67;;;10.20;99.90;;;;;;5032423;28;20061;-41
2023/11/09 06:47:41;;;;;;;8.45;3.40;;;10.20;99.90;;;;;;5032330;28;20068;-40
2023/11/09 06:50:16;;;;;;;12.35;3.78;;;10.10;99.90;;;;;;5033541;28;20071;-41
2023/11/09 06:52:42;;;;;;;9.60;3.45;;;10.10;99.90;;;;;;5032094;28;20025;-49
2023/11/09 06:55:17;;;;;;;9.23;3.83;;;10.10;99.90;;;;;;5033881;28;20524;-53
2023/11/09 06:57:44;;;;;;;9.02;3.75;;;10.00;99.90;;;;;;5033396;28;20061;-54
2023/11/09 07:00:11;;;;;;;16.93;3.87;;;10.10;99.90;;;;;;5033418;28;20018;-52
2023/11/09 07:02:41;;;;;;;17.00;4.35;;;10.00;99.90;;;;;;5032339;28;20025;-53
2023/11/09 07:05:08;;;;;;;10.43;4.38;;;10.00;99.90;;;;;;5033279;28;20108;-53
2023/11/09 07:07:34;;;;;;;10.45;4.47;;;10.00;99.90;;;;;;5032286;28;20013;-54
2023/11/09 07:10:01;;;;;;;10.55;3.88;;;9.90;99.90;;;;;;5033213;28;20049;-55
2023/11/09 07:12:26;;;;;;;14.38;4.40;;;9.90;99.90;;;;;;5033304;28;20458;-55
2023/11/09 07:14:52;;;;;;;10.20;4.63;;;9.90;99.90;;;;;;5033282;28;20025;-41
2023/11/09 07:17:19;;;;;;;12.65;4.00;;;9.90;99.90;;;;;;5033389;28;20029;-40
2023/11/09 07:19:48;;;;;;;11.80;4.23;;;9.90;99.90;;;;;;5032888;28;20541;-39
2023/11/09 07:22:14;;;;;;;10.13;4.00;;;10.00;99.90;;;;;;5033349;28;20559;-39
2023/11/09 07:24:41;;;;;;;15.35;5.57;;;9.90;99.90;;;;;;5033208;28;20446;-40
2023/11/09 07:27:09;;;;;;;12.23;3.97;;;9.90;99.90;;;;;;5031857;28;20025;-40
2023/11/09 07:29:36;;;;;;;6.82;3.97;;;9.90;99.90;;;;;;5032952;28;20600;-39
2023/11/09 07:32:02;;;;;;;7.90;3.53;;;10.00;99.90;;;;;;5033057;28;20489;-40
2023/11/09 07:34:30;;;;;;;9.50;3.58;;;9.90;99.90;;;;;;5033095;28;20044;-41
2023/11/09 07:36:58;;;;;;;11.63;3.63;;;9.90;99.90;;;;;;5032896;28;20473;-41
2023/11/09 07:39:27;;;;;;;12.82;3.47;;;9.90;99.90;;;;;;5033077;28;20026;-40
2023/11/09 07:41:54;;;;;;;13.07;3.92;;;9.80;99.90;;;;;;5033310;28;20529;-41
2023/11/09 07:44:21;;;;;;;5.75;2.88;;;9.80;99.90;;;;;;5033001;28;20036;-40
2023/11/09 07:46:48;;;;;;;6.83;3.90;;;9.80;99.90;;;;;;5032623;28;20124;-40
2023/11/09 07:49:14;;;;;;;7.50;2.58;;;9.80;99.90;;;;;;5032858;28;20083;-39
2023/11/09 07:51:40;;;;;;;8.95;2.63;;;9.80;99.90;;;;;;5032922;28;20029;-38
2023/11/09 07:54:09;;;;;;;9.48;2.75;;;9.90;99.90;;;;;;5032732;28;20099;-38
2023/11/09 07:56:35;;;;;;;8.38;3.13;;;9.90;99.90;;;;;;5032725;28;20032;-38
2023/11/09 07:59:00;;;;;;;19.92;3.00;;;9.90;99.90;;;;;;5032690;28;20034;-39
2023/11/09 08:01:26;;;;;;;9.48;3.60;;;10.00;99.90;;;;;;5032652;28;20152;-41
2023/11/09 08:03:51;;;;;;;8.13;3.08;;;10.00;99.90;;;;;;5032609;28;20017;-39
2023/11/09 08:06:17;;;;;;;13.73;2.78;;;10.10;99.90;;;;;;5032705;28;20036;-39
2023/11/09 08:08:44;;;;;;;11.27;2.83;;;10.10;99.90;;;;;;5032767;28;20501;-39
2023/11/09 08:11:11;;;;;;;11.77;3.78;;;10.10;99.90;;;;;;5031426;28;20402;-38
2023/11/09 08:13:37;;;;;;;13.05;3.83;;;10.20;99.90;;;;;;5032835;28;20478;-39
2023/11/09 08:16:03;;;;;;;11.32;3.08;;;10.20;99.90;;;;;;5031384;28;20037;-40
2023/11/09 08:18:29;;;;;;;17.10;3.72;;;10.30;99.90;;;;;;5032842;28;20029;-40
2023/11/09 08:20:55;;;;;;;23.58;5.57;;;10.30;99.90;;;;;;5036252;28;20029;-39
2023/11/09 08:23:21;;;;;;;11.75;3.60;;;10.40;99.90;;;;;;5036546;28;20383;-39
2023/11/09 08:25:46;;;;;;;15.60;4.10;;;10.40;99.90;;;;;;5036379;28;20030;-38
2023/11/09 08:28:12;;;;;;;14.75;3.70;;;10.50;99.90;;;;;;5036243;28;20034;-39
2023/11/09 08:30:38;;;;;;;15.02;4.03;;;10.40;99.90;;;;;;5036185;28;20021;-39
2023/11/09 08:33:08;;;;;;;15.55;4.35;;;10.40;99.90;;;;;;5036647;28;20025;-38
2023/11/09 08:35:34;;;;;;;13.43;4.25;;;10.40;99.90;;;;;;5035901;28;20052;-39
2023/11/09 08:38:01;;;;;;;8.18;3.35;;;10.30;99.90;;;;;;5036050;28;20569;-38
2023/11/09 08:40:27;;;;;;;15.25;4.78;;;10.40;99.90;;;;;;5036448;28;20377;-38
2023/11/09 08:42:54;;;;;;;11.73;3.63;;;10.40;99.90;;;;;;5036357;28;20513;-39
2023/11/09 08:45:27;;;;;;;5.53;3.33;;;10.40;99.90;;;;;;5036074;28;20033;-39
2023/11/09 08:47:53;;;;;;;16.98;4.57;;;10.40;99.90;;;;;;5034969;28;20026;-39
2023/11/09 08:50:22;;;;;;;14.52;5.28;;;10.40;99.90;;;;;;5036159;28;20059;-38
2023/11/09 08:52:49;;;;;;;13.13;3.97;;;10.50;99.90;;;;;;5027436;28;20552;-37
2023/11/09 08:55:16;;;;;;;13.80;3.85;;;10.50;99.90;;;;;;5016117;28;20018;-38
2023/11/09 08:57:42;;;;;;;11.95;3.40;;;10.60;99.90;;;;;;5032303;28;20595;-40
2023/11/09 09:00:13;;;;;;;8.55;3.83;;;10.60;99.90;;;;;;5035340;28;20136;-38
2023/11/09 09:02:48;;;;;;;8.70;3.55;;;10.70;99.90;;;;;;5035589;28;20045;-38
2023/11/09 09:05:17;;;;;;;11.15;3.63;;;10.70;99.90;;;;;;5034457;28;20029;-38
2023/11/09 09:07:44;;;;;;;10.70;3.60;;;10.70;99.90;;;;;;5035778;28;20037;-42
2023/11/09 09:10:15;;;;;;;11.35;4.13;;;10.80;99.90;;;;;;5035800;28;20030;-40
2023/11/09 09:12:44;;;;;;;9.20;3.60;;;10.80;99.90;;;;;;5035713;28;20462;-38
2023/11/09 09:15:15;;;;;;;14.85;3.55;;;10.80;99.90;;;;;;5035847;28;20022;-37
2023/11/09 09:17:42;;;;;;;9.73;3.40;;;10.80;99.90;;;;;;5035866;28;20028;-37
2023/11/09 09:20:12;;;;;;;16.90;3.97;;;10.90;99.90;;;;;;5035139;28;20026;-38
2023/11/09 09:22:39;;;;;;;11.90;3.58;;;11.00;99.90;;;;;;5035583;28;20071;-37
2023/11/09 09:25:10;;;;;;;13.35;3.78;;;11.00;99.90;;;;;;5035344;28;20028;-38
2023/11/09 09:27:42;;;;;;;12.23;3.83;;;11.10;99.90;;;;;;5035487;28;20406;-37
2023/11/09 09:30:10;;;;;;;14.00;4.30;;;11.10;99.90;;;;;;5034663;28;20382;-37
2023/11/09 09:32:38;;;;;;;15.95;4.80;;;11.20;99.90;;;;;;5033903;28;20022;-37
2023/11/09 09:35:10;;;;;;;25.08;5.00;;;11.20;99.90;;;;;;5033444;28;20049;-38
2023/11/09 09:37:39;;;;;;;16.35;3.88;;;11.20;99.90;;;;;;5035267;28;20029;-37
2023/11/09 09:40:16;;;;;;;10.90;3.67;;;11.30;99.90;;;;;;5035260;28;20025;-38
2023/11/09 09:42:47;;;;;;;7.85;3.13;;;11.30;99.90;;;;;;5034952;28;20026;-38
2023/11/09 09:45:18;;;;;;;9.25;2.92;;;11.20;99.90;;;;;;5035295;28;20026;-38
2023/11/09 09:47:48;;;;;;;15.65;3.60;;;11.20;99.90;;;;;;5034965;28;20052;-35
2023/11/09 09:50:15;;;;;;;17.27;3.88;;;11.20;99.90;;;;;;5034394;28;20095;-36
2023/11/09 09:52:46;;;;;;;13.95;2.97;;;11.20;99.90;;;;;;5034488;28;20489;-36
2023/11/09 09:55:14;;;;;;;12.68;3.05;;;11.20;99.90;;;;;;5034975;28;20095;-35
2023/11/09 10:00:26;;;;;;;8.75;3.70;;;11.30;99.90;;;;;;5034467;28;20045;-36
2023/11/09 10:02:56;;;;;;;14.60;4.20;;;11.30;99.90;;;;;;5033009;28;20099;-36
2023/11/09 10:05:24;;;;;;;20.42;3.97;;;11.40;99.90;;;;;;5034460;28;20580;-37
2023/11/09 10:08:10;;;;;;;11.35;3.13;;;11.40;99.90;;;;;;5034648;28;20029;-37
2023/11/09 10:10:50;;;;;;;12.57;3.35;;;11.50;99.90;;;;;;5034074;28;20030;-36
2023/11/09 10:13:18;;;;;;;8.85;3.42;;;11.50;99.90;;;;;;5034606;28;20079;-38
2023/11/09 10:15:45;;;;;;;8.98;3.92;;;11.50;99.90;;;;;;5033771;28;20053;-37
2023/11/09 10:18:12;;;;;;;17.87;3.03;;;11.40;99.90;;;;;;5034529;28;20517;-35
2023/11/09 10:20:56;;;;;;;16.05;3.70;;;11.40;99.90;;;;;;5034496;28;20025;-35
2023/11/09 10:23:22;;;;;;;11.90;3.08;;;11.50;99.90;;;;;;5034469;28;20029;-35
2023/11/09 10:25:48;;;;;;;18.13;3.28;;;11.40;99.90;;;;;;5034198;28;20040;-35
2023/11/09 10:28:14;;;;;;;17.08;2.85;;;11.50;99.90;;;;;;5034401;28;20108;-34
2023/11/09 10:30:41;;;;;;;21.33;2.67;;;11.40;99.90;;;;;;5034178;28;20033;-36
2023/11/09 10:33:09;;;;;;;20.80;3.15;;;11.40;99.90;;;;;;5034280;28;20060;-35
2023/11/09 10:35:37;;;;;;;10.43;2.80;;;11.40;99.90;;;;;;5033907;28;20132;-34
2023/11/09 10:38:03;;;;;;;;;;;11.40;99.90;;;;;;5034851;28;20025;-35
2023/11/09 10:40:30;;;;;;;17.55;3.58;;;11.40;99.90;;;;;;5032977;28;19932;-37
2023/11/09 10:43:01;;;;;;;15.95;2.90;;;11.30;99.90;;;;;;5033722;28;20477;-36
2023/11/09 10:45:31;;;;;;;9.45;2.85;;;11.20;99.90;;;;;;5034021;28;20021;-37
2023/11/09 10:48:04;;;;;;;15.45;2.85;;;11.20;99.90;;;;;;5033708;28;20025;-36
2023/11/09 10:50:30;;;;;;;9.05;2.22;;;11.20;99.90;;;;;;5032246;28;20017;-36
2023/11/09 10:52:58;;;;;;;11.98;1.90;;;11.20;99.90;;;;;;5031963;28;20025;-35
2023/11/09 10:55:25;;;;;;;12.57;2.70;;;11.20;99.90;;;;;;5033983;28;20482;-36
2023/11/09 10:57:52;;;;;;;12.13;3.53;;;11.30;99.90;;;;;;5033482;28;20018;-34
2023/11/09 11:00:31;;;;;;;16.33;2.42;;;11.40;99.90;;;;;;5032037;28;20120;-36
2023/11/09 11:03:08;;;;;;;10.15;3.05;;;11.40;99.90;;;;;;5033670;28;20032;-35
2023/11/09 11:05:40;;;;;;;16.45;3.13;;;11.50;99.90;;;;;;5033958;28;20101;-36
2023/11/09 11:08:11;;;;;;;14.90;2.38;;;11.50;99.90;;;;;;5033734;28;20504;-36
2023/11/09 11:10:42;;;;;;;25.08;3.17;;;11.60;99.90;;;;;;5033628;28;20072;-36
2023/11/09 11:13:10;;;;;;;24.92;3.15;;;11.60;99.90;;;;;;5033403;28;20029;-36
2023/11/09 11:15:59;;;;;;;16.38;2.83;;;11.60;99.90;;;;;;5032934;28;20030;-35
2023/11/09 11:18:43;;;;;;;17.33;3.47;;;11.60;99.90;;;;;;5033083;28;20075;-34
2023/11/09 11:21:20;;;;;;;10.73;2.95;;;11.50;99.90;;;;;;5033392;28;20033;-36
2023/11/09 11:24:24;;;;;;;15.17;3.97;;;11.50;99.90;;;;;;5033445;28;20029;-34
2023/11/09 11:27:10;;;;;;;13.48;1.98;;;11.50;99.90;;;;;;5011050;28;20045;-34
2023/11/09 11:29:39;;;;;;;7.85;2.00;;;11.60;99.90;;;;;;5032390;28;20445;-36
2023/11/09 11:32:09;;;;;;;17.40;2.72;;;11.70;99.90;;;;;;5032889;28;20030;-34
2023/11/09 11:34:54;;;;;;;9.43;2.47;;;11.70;99.90;;;;;;5032678;28;20036;-34
2023/11/09 11:37:31;;;;;;;8.57;2.42;;;11.80;99.90;;;;;;5033427;28;20552;-34
2023/11/09 11:40:05;;;;;;;13.70;2.20;;;11.70;99.90;;;;;;5033093;28;20482;-34
2023/11/09 11:42:33;;;;;;;14.13;2.88;;;11.60;99.90;;;;;;5033171;28;20021;-35
2023/11/09 11:45:02;;;;;;;8.43;1.73;;;11.60;99.90;;;;;;5033084;28;20025;-36
2023/11/09 11:47:29;;;;;;;6.38;2.00;;;11.60;99.90;;;;;;5032484;28;20065;-35
2023/11/09 11:49:59;;;;;;;12.98;2.20;;;11.70;99.90;;;;;;5032950;28;20041;-36
2023/11/09 11:52:25;;;;;;;7.63;2.03;;;11.70;99.90;;;;;;5032952;28;20079;-35
2023/11/09 11:54:51;;;;;;;8.80;1.45;;;11.70;99.90;;;;;;5031813;28;20025;-35
2023/11/09 11:57:18;;;;;;;14.05;2.38;;;11.70;99.90;;;;;;5032881;28;20026;-36
2023/11/09 12:00:00;;;;;;;5.55;2.30;;;11.70;99.90;;;;;;5031841;28;20045;-35
2023/11/09 12:02:26;;;;;;;19.20;2.40;;;11.80;99.90;;;;;;5032197;28;20069;-34
2023/11/09 12:04:56;;;;;;;12.38;2.35;;;11.90;99.90;;;;;;5032799;28;20057;-47
2023/11/09 12:07:25;;;;;;;3.55;1.42;;;11.90;99.90;;;;;;5032653;28;20558;-35
2023/11/09 12:09:52;;;;;;;7.68;1.85;;;11.80;99.90;;;;;;5032770;28;20041;-40
2023/11/09 12:12:17;;;;;;;14.98;1.73;;;11.80;99.90;;;;;;5032267;28;20061;-35
2023/11/09 12:14:46;;;;;;;10.13;2.22;;;11.80;99.90;;;;;;5032204;28;20080;-35
2023/11/09 12:17:13;;;;;;;14.07;2.47;;;11.70;99.90;;;;;;5032779;28;20029;-35
2023/11/09 12:19:41;;;;;;;11.13;1.85;;;11.80;99.90;;;;;;5032740;28;20466;-43
2023/11/09 12:22:07;;;;;;;17.13;4.45;;;11.80;99.90;;;;;;5032631;28;20026;-36
2023/11/09 12:24:33;;;;;;;9.10;2.00;;;11.80;99.90;;;;;;5033237;28;20029;-36
2023/11/09 12:27:07;;;;;;;13.13;1.70;;;11.70;99.90;;;;;;5032387;28;20029;-36
2023/11/09 12:29:41;;;;;;;15.55;1.67;;;11.70;99.90;;;;;;5032314;28;20159;-37
2023/11/09 12:32:08;;;;;;;10.90;2.22;;;11.70;99.90;;;;;;5032035;28;20501;-36
2023/11/09 12:34:37;;;;;;;10.25;2.13;;;11.80;99.90;;;;;;5031937;28;20507;-35
2023/11/09 12:37:03;;;;;;;8.45;1.98;;;11.80;99.90;;;;;;5029532;28;20533;-36
2023/11/09 12:39:30;;;;;;;10.73;1.77;;;11.80;99.90;;;;;;5032160;28;20032;-37
2023/11/09 12:42:01;;;;;;;9.40;2.50;;;11.80;99.90;;;;;;5032286;28;20013;-36
2023/11/09 12:44:29;;;;;;;14.38;2.20;;;11.80;99.90;;;;;;5041433;28;20271;-41
2023/11/09 12:47:13;;;;;;;4.70;1.67;;;11.80;99.90;;;;;;5037147;28;20552;-37
2023/11/09 12:49:45;;;;;;;13.48;2.70;;;11.80;99.90;;;;;;5032429;28;20112;-37
2023/11/09 12:52:11;;;;;;;9.93;1.60;;;11.70;99.90;;;;;;5031170;28;20486;-36
2023/11/09 12:54:39;;;;;;;8.50;1.77;;;11.70;99.90;;;;;;5031075;28;20040;-41
2023/11/09 12:57:06;;;;;;;17.13;2.75;;;11.70;99.90;;;;;;5030700;28;20033;-37
2023/11/09 12:59:41;;;;;;;18.98;2.35;;;11.60;99.90;;;;;;5031999;28;20049;-37